createdAt,value
2022-10-12T00:00:04.366Z,81.5
2022-10-12T00:01:07.608Z,81.5
2022-10-12T00:02:11.302Z,81.9
2022-10-12T00:03:14.429Z,81.9
2022-10-12T00:04:18.069Z,81.9
2022-10-12T00:05:21.818Z,81.9
2022-10-12T00:06:24.930Z,81.9
2022-10-12T00:07:28.573Z,81.8
2022-10-12T00:08:32.697Z,81.8
2022-10-12T00:09:35.490Z,81.8
2022-10-12T00:10:39.174Z,81.8
2022-10-12T00:11:42.365Z,81.8
2022-10-12T00:12:45.469Z,81.8
2022-10-12T00:13:48.638Z,81.9
2022-10-12T00:14:51.440Z,82.3
2022-10-12T00:15:54.248Z,82.4
2022-10-12T00:16:57.048Z,82.3
2022-10-12T00:18:00.477Z,82.2
2022-10-12T00:19:03.704Z,82.2
2022-10-12T00:20:07.214Z,82.2
2022-10-12T00:21:10.660Z,82.3
2022-10-12T00:22:13.618Z,82.3
2022-10-12T00:23:17.038Z,82.3
2022-10-12T00:24:19.732Z,82.3
2022-10-12T00:25:22.606Z,82.2
2022-10-12T00:26:25.602Z,82.4
2022-10-12T00:27:29.051Z,82.6
2022-10-12T00:28:32.279Z,82.6
2022-10-12T00:29:34.827Z,82.3
2022-10-12T00:30:37.434Z,82.2
2022-10-12T00:31:40.499Z,82.1
2022-10-12T00:32:43.934Z,82
2022-10-12T00:33:47.634Z,82.6
2022-10-12T00:34:50.820Z,83
2022-10-12T00:35:53.663Z,83.2
2022-10-12T00:36:57.093Z,83
2022-10-12T00:38:00.253Z,83.2
2022-10-12T00:39:03.694Z,83.1
2022-10-12T00:40:07.152Z,82.9
2022-10-12T00:41:10.245Z,82.8
2022-10-12T00:42:13.316Z,82.9
2022-10-12T00:43:16.778Z,82.9
2022-10-12T00:44:19.487Z,82.9
2022-10-12T00:45:22.298Z,82.8
2022-10-12T00:46:24.728Z,82.8
2022-10-12T00:47:27.718Z,82.7
2022-10-12T00:48:30.514Z,82.7
2022-10-12T00:49:33.629Z,82.6
2022-10-12T00:50:36.726Z,82.5
2022-10-12T00:51:39.806Z,82.4
2022-10-12T00:52:42.790Z,82.5
2022-10-12T00:53:45.663Z,82.5
2022-10-12T00:54:49.721Z,82.5
2022-10-12T00:55:52.951Z,82.6
2022-10-12T00:56:55.746Z,82.7
2022-10-12T00:57:59.231Z,82.8
2022-10-12T00:59:01.955Z,82.8
2022-10-12T01:00:04.459Z,82.8
2022-10-12T01:01:08.559Z,82.8
2022-10-12T01:02:11.818Z,82.9
2022-10-12T01:03:15.200Z,82.9
2022-10-12T01:04:18.572Z,83
2022-10-12T01:05:21.762Z,83
2022-10-12T01:06:25.192Z,83.1
2022-10-12T01:07:28.546Z,83.2
2022-10-12T01:08:31.806Z,83.2
2022-10-12T01:09:34.235Z,83.3
2022-10-12T01:10:38.044Z,83.3
2022-10-12T01:11:41.104Z,83.4
2022-10-12T01:12:43.629Z,83.6
2022-10-12T01:13:46.139Z,83.7
2022-10-12T01:14:49.582Z,83.7
2022-10-12T01:15:52.377Z,83.7
2022-10-12T01:16:55.442Z,83.6
2022-10-12T01:17:58.526Z,83.7
2022-10-12T01:19:01.320Z,83.7
2022-10-12T01:20:04.400Z,83.8
2022-10-12T01:21:06.973Z,83.9
2022-10-12T01:22:09.588Z,83.8
2022-10-12T01:23:13.224Z,83.7
2022-10-12T01:24:16.929Z,83.7
2022-10-12T01:25:20.630Z,83.7
2022-10-12T01:26:24.083Z,83.7
2022-10-12T01:27:27.533Z,83.6
2022-10-12T01:28:30.291Z,83.6
2022-10-12T01:29:33.944Z,83.6
2022-10-12T01:30:36.454Z,83.6
2022-10-12T01:31:38.876Z,83.7
2022-10-12T01:32:42.165Z,83.7
2022-10-12T01:33:45.170Z,84.2
2022-10-12T01:34:48.231Z,84.3
2022-10-12T01:35:51.679Z,84.2
2022-10-12T01:36:54.862Z,84.6
2022-10-12T01:37:58.391Z,84.5
2022-10-12T01:39:01.829Z,84.4
2022-10-12T01:40:04.486Z,84.2
2022-10-12T01:41:07.678Z,84.1
2022-10-12T01:42:10.836Z,84
2022-10-12T01:43:14.054Z,84
2022-10-12T01:44:17.475Z,84.1
2022-10-12T01:45:19.779Z,84.1
2022-10-12T01:46:23.155Z,84.3
2022-10-12T01:47:25.967Z,84.3
2022-10-12T01:48:28.572Z,84.2
2022-10-12T01:49:31.010Z,84.2
2022-10-12T01:50:34.112Z,84.1
2022-10-12T01:51:36.357Z,84.1
2022-10-12T01:52:39.743Z,84.1
2022-10-12T01:53:42.721Z,84.1
2022-10-12T01:54:46.091Z,84.2
2022-10-12T01:55:48.880Z,84.2
2022-10-12T01:56:52.036Z,84.2
2022-10-12T01:57:55.291Z,84.2
2022-10-12T01:58:58.530Z,84.2
2022-10-12T02:00:02.268Z,84.1
2022-10-12T02:01:06.376Z,84.1
2022-10-12T02:02:10.348Z,84.1
2022-10-12T02:03:12.935Z,84.1
2022-10-12T02:04:15.920Z,84.2
2022-10-12T02:05:18.435Z,84.3
2022-10-12T02:06:21.336Z,84.4
2022-10-12T02:07:24.789Z,84.5
2022-10-12T02:08:27.896Z,84.3
2022-10-12T02:09:31.065Z,84.3
2022-10-12T02:10:34.421Z,84.3
2022-10-12T02:11:37.397Z,84.3
2022-10-12T02:12:40.192Z,84.3
2022-10-12T02:13:43.622Z,84.2
2022-10-12T02:14:46.513Z,84.1
2022-10-12T02:15:49.851Z,84
2022-10-12T02:16:52.435Z,83.9
2022-10-12T02:17:54.977Z,83.9
2022-10-12T02:18:57.687Z,83.8
2022-10-12T02:20:00.862Z,83.9
2022-10-12T02:21:04.014Z,84
2022-10-12T02:22:07.192Z,84.1
2022-10-12T02:23:10.372Z,84
2022-10-12T02:24:13.859Z,83.9
2022-10-12T02:25:17.147Z,83.7
2022-10-12T02:26:20.215Z,83.6
2022-10-12T02:27:23.381Z,83.6
2022-10-12T02:28:27.095Z,83.6
2022-10-12T02:29:30.810Z,83.6
2022-10-12T02:30:34.172Z,83.5
2022-10-12T02:31:36.600Z,83.5
2022-10-12T02:32:38.759Z,83.4
2022-10-12T02:33:41.845Z,83.5
2022-10-12T02:34:44.637Z,83.7
2022-10-12T02:35:47.959Z,83.8
2022-10-12T02:36:50.822Z,83.8
2022-10-12T02:37:53.630Z,83.9
2022-10-12T02:38:56.709Z,83.9
2022-10-12T02:39:59.580Z,83.9
2022-10-12T02:41:02.765Z,83.8
2022-10-12T02:42:06.465Z,83.8
2022-10-12T02:43:12.737Z,83.8
2022-10-12T02:44:15.801Z,84
2022-10-12T02:45:19.523Z,84.2
2022-10-12T02:46:23.255Z,84.2
2022-10-12T02:47:26.589Z,84.2
2022-10-12T02:48:29.401Z,84.1
2022-10-12T02:49:32.316Z,84.1
2022-10-12T02:50:35.187Z,84
2022-10-12T02:51:38.561Z,84
2022-10-12T02:52:41.437Z,83.9
2022-10-12T02:53:44.625Z,83.9
2022-10-12T02:54:47.818Z,83.8
2022-10-12T02:55:50.678Z,83.8
2022-10-12T02:56:53.290Z,83.8
2022-10-12T02:57:56.358Z,83.8
2022-10-12T02:58:58.796Z,83.8
2022-10-12T03:00:01.030Z,83.8
2022-10-12T03:01:05.036Z,83.8
2022-10-12T03:02:08.192Z,83.8
2022-10-12T03:03:11.273Z,83.8
2022-10-12T03:04:14.271Z,83.9
2022-10-12T03:05:17.562Z,83.9
2022-10-12T03:06:20.820Z,83.9
2022-10-12T03:07:24.251Z,83.8
2022-10-12T03:08:27.316Z,83.7
2022-10-12T03:09:30.186Z,83.7
2022-10-12T03:10:33.171Z,83.8
2022-10-12T03:11:36.124Z,83.8
2022-10-12T03:12:39.286Z,83.8
2022-10-12T03:13:42.083Z,83.7
2022-10-12T03:14:44.872Z,83.6
2022-10-12T03:15:47.982Z,83.6
2022-10-12T03:16:52.060Z,83.5
2022-10-12T03:17:55.050Z,83.4
2022-10-12T03:18:58.746Z,83.4
2022-10-12T03:20:01.607Z,83.4
2022-10-12T03:21:04.287Z,83.4
2022-10-12T03:22:07.635Z,83.4
2022-10-12T03:23:10.425Z,83.3
2022-10-12T03:24:12.944Z,83.3
2022-10-12T03:25:15.454Z,83.3
2022-10-12T03:26:19.154Z,83.3
2022-10-12T03:27:22.279Z,83.2
2022-10-12T03:28:25.823Z,83.2
2022-10-12T03:29:29.775Z,83.2
2022-10-12T03:30:33.034Z,83.2
2022-10-12T03:31:36.826Z,83.2
2022-10-12T03:32:40.052Z,83.2
2022-10-12T03:33:42.594Z,83.2
2022-10-12T03:34:45.649Z,83.2
2022-10-12T03:35:48.419Z,83.2
2022-10-12T03:36:51.841Z,83.1
2022-10-12T03:37:55.447Z,83.2
2022-10-12T03:38:58.993Z,83.2
2022-10-12T03:40:02.192Z,83.2
2022-10-12T03:41:08.029Z,83.3
2022-10-12T03:42:11.115Z,83.3
2022-10-12T03:43:14.223Z,83.3
2022-10-12T03:44:17.606Z,83.3
2022-10-12T03:45:21.306Z,83.4
2022-10-12T03:46:24.564Z,83.4
2022-10-12T03:47:27.706Z,83.4
2022-10-12T03:48:31.069Z,83.4
2022-10-12T03:49:34.813Z,83.4
2022-10-12T03:50:37.797Z,83.4
2022-10-12T03:51:39.953Z,83.4
2022-10-12T03:52:43.609Z,83.5
2022-10-12T03:53:46.801Z,83.5
2022-10-12T03:54:49.594Z,83.6
2022-10-12T03:55:52.461Z,83.7
2022-10-12T03:56:55.262Z,83.7
2022-10-12T03:57:58.338Z,83.8
2022-10-12T03:59:01.527Z,83.8
2022-10-12T04:00:04.611Z,83.8
2022-10-12T04:01:08.335Z,83.9
2022-10-12T04:02:18.288Z,83.9
2022-10-12T04:03:20.962Z,84
2022-10-12T04:04:24.117Z,84.1
2022-10-12T04:05:27.181Z,84.1
2022-10-12T04:06:29.683Z,84.1
2022-10-12T04:07:32.870Z,84.1
2022-10-12T04:08:35.391Z,84.1
2022-10-12T04:09:39.291Z,84.1
2022-10-12T04:10:42.167Z,84.1
2022-10-12T04:11:45.278Z,84.1
2022-10-12T04:12:48.433Z,84
2022-10-12T04:13:51.587Z,84.1
2022-10-12T04:14:54.430Z,84
2022-10-12T04:15:58.529Z,84
2022-10-12T04:17:01.682Z,84
2022-10-12T04:18:04.485Z,84.2
2022-10-12T04:19:07.843Z,84.4
2022-10-12T04:20:11.569Z,84.4
2022-10-12T04:21:14.371Z,84.4
2022-10-12T04:22:17.463Z,84.4
2022-10-12T04:23:20.159Z,84.3
2022-10-12T04:24:22.948Z,84.2
2022-10-12T04:25:31.449Z,84.3
2022-10-12T04:26:34.441Z,84.2
2022-10-12T04:27:39.172Z,84.2
2022-10-12T04:28:43.473Z,84.2
2022-10-12T04:29:46.462Z,84.3
2022-10-12T04:30:49.568Z,84.3
2022-10-12T04:31:52.682Z,84.3
2022-10-12T04:32:55.545Z,84.3
2022-10-12T04:33:58.904Z,84.3
2022-10-12T04:35:02.318Z,84.3
2022-10-12T04:36:06.131Z,84.3
2022-10-12T04:37:09.276Z,84.2
2022-10-12T04:38:11.826Z,84.5
2022-10-12T04:39:15.259Z,84.6
2022-10-12T04:40:18.982Z,84.7
2022-10-12T04:41:22.074Z,84.7
2022-10-12T04:42:25.511Z,84.7
2022-10-12T04:43:28.379Z,84.7
2022-10-12T04:44:33.869Z,84.6
2022-10-12T04:45:36.731Z,84.6
2022-10-12T04:46:39.654Z,84.5
2022-10-12T04:47:42.934Z,84.5
2022-10-12T04:48:46.082Z,84.4
2022-10-12T04:49:49.159Z,84.3
2022-10-12T04:50:52.220Z,84.3
2022-10-12T04:51:56.003Z,84.3
2022-10-12T04:52:58.302Z,84.4
2022-10-12T04:54:00.545Z,84.6
2022-10-12T04:55:04.292Z,84.6
2022-10-12T04:56:07.749Z,84.6
2022-10-12T04:57:11.421Z,84.5
2022-10-12T04:58:14.871Z,84.5
2022-10-12T04:59:17.715Z,84.6
2022-10-12T05:00:20.431Z,84.6
2022-10-12T05:01:23.772Z,84.7
2022-10-12T05:02:26.583Z,84.7
2022-10-12T05:03:29.573Z,84.7
2022-10-12T05:04:32.829Z,84.8
2022-10-12T05:05:35.620Z,84.7
2022-10-12T05:06:38.799Z,84.7
2022-10-12T05:07:42.808Z,84.6
2022-10-12T05:08:45.861Z,84.6
2022-10-12T05:09:49.046Z,84.5
2022-10-12T05:10:51.721Z,84.4
2022-10-12T05:11:54.788Z,84.3
2022-10-12T05:12:58.246Z,84.3
2022-10-12T05:14:01.230Z,84.3
2022-10-12T05:15:03.571Z,84.1
2022-10-12T05:16:06.417Z,84.1
2022-10-12T05:17:09.124Z,83.9
2022-10-12T05:18:11.999Z,83.9
2022-10-12T05:19:14.713Z,84
2022-10-12T05:20:18.413Z,84
2022-10-12T05:21:21.475Z,84
2022-10-12T05:22:24.843Z,84.1
2022-10-12T05:23:28.600Z,84.1
2022-10-12T05:24:31.391Z,84.2
2022-10-12T05:25:35.097Z,84.1
2022-10-12T05:26:38.164Z,84.1
2022-10-12T05:27:42.042Z,84.1
2022-10-12T05:28:45.659Z,84.1
2022-10-12T05:29:48.900Z,84.2
2022-10-12T05:30:51.436Z,84.2
2022-10-12T05:31:54.253Z,84.2
2022-10-12T05:32:56.503Z,84.2
2022-10-12T05:33:59.687Z,84.2
2022-10-12T05:35:02.886Z,84.2
2022-10-12T05:36:06.313Z,84
2022-10-12T05:37:09.017Z,84
2022-10-12T05:38:11.892Z,84.1
2022-10-12T05:39:15.687Z,84.2
2022-10-12T05:40:18.560Z,84.2
2022-10-12T05:41:21.712Z,84.3
2022-10-12T05:42:25.415Z,84.3
2022-10-12T05:43:28.119Z,84.3
2022-10-12T05:44:31.352Z,84.2
2022-10-12T05:45:33.874Z,84.3
2022-10-12T05:46:36.862Z,84.2
2022-10-12T05:47:41.558Z,84.2
2022-10-12T05:48:44.268Z,84.2
2022-10-12T05:49:47.185Z,84.2
2022-10-12T05:50:50.019Z,84.3
2022-10-12T05:51:53.077Z,84.4
2022-10-12T05:52:56.535Z,84.4
2022-10-12T05:53:59.331Z,84.5
2022-10-12T05:55:02.830Z,84.5
2022-10-12T05:56:06.237Z,84.5
2022-10-12T05:57:08.825Z,84.5
2022-10-12T05:58:12.011Z,84.4
2022-10-12T05:59:15.450Z,84.4
2022-10-12T06:00:18.418Z,84.5
2022-10-12T06:01:21.989Z,84.5
2022-10-12T06:02:24.704Z,84.5
2022-10-12T06:03:35.838Z,84.5
2022-10-12T06:04:39.178Z,84.5
2022-10-12T06:05:42.676Z,84.5
2022-10-12T06:06:46.026Z,84.5
2022-10-12T06:07:49.730Z,84.5
2022-10-12T06:08:52.632Z,84.5
2022-10-12T06:09:55.225Z,84.5
2022-10-12T06:10:58.731Z,84.4
2022-10-12T06:12:01.261Z,84.4
2022-10-12T06:13:04.173Z,84.4
2022-10-12T06:14:06.600Z,84.5
2022-10-12T06:15:09.993Z,84.5
2022-10-12T06:16:12.416Z,84.5
2022-10-12T06:17:15.496Z,84.5
2022-10-12T06:18:19.207Z,84.4
2022-10-12T06:19:22.679Z,84.5
2022-10-12T06:20:25.897Z,84.4
2022-10-12T06:21:36.481Z,84.4
2022-10-12T06:22:41.347Z,84.3
2022-10-12T06:23:44.813Z,84.4
2022-10-12T06:24:47.638Z,84.4
2022-10-12T06:25:50.560Z,84.3
2022-10-12T06:26:54.018Z,84.3
2022-10-12T06:27:57.442Z,84.3
2022-10-12T06:29:01.389Z,84.2
2022-10-12T06:30:04.262Z,84.2
2022-10-12T06:31:07.326Z,84.3
2022-10-12T06:32:10.773Z,84.3
2022-10-12T06:33:13.837Z,84.3
2022-10-12T06:34:16.636Z,84.3
2022-10-12T06:35:19.890Z,84.2
2022-10-12T06:36:23.044Z,84.3
2022-10-12T06:37:51.655Z,84.3
2022-10-12T06:38:55.017Z,84.4
2022-10-12T06:39:58.451Z,84.4
2022-10-12T06:41:01.833Z,84.3
2022-10-12T06:42:05.521Z,84.3
2022-10-12T06:43:09.178Z,84.3
2022-10-12T06:44:11.458Z,84.3
2022-10-12T06:45:14.251Z,84.4
2022-10-12T06:46:16.690Z,84.3
2022-10-12T06:47:19.783Z,84.4
2022-10-12T06:48:22.585Z,84.4
2022-10-12T06:49:25.570Z,84.4
2022-10-12T06:50:27.323Z,84.2
2022-10-12T06:51:30.310Z,84.2
2022-10-12T06:52:33.391Z,84.2
2022-10-12T06:53:36.833Z,84.2
2022-10-12T06:54:40.852Z,84.2
2022-10-12T06:55:43.739Z,84.2
2022-10-12T06:56:47.083Z,84.1
2022-10-12T06:57:50.596Z,84.1
2022-10-12T06:58:53.473Z,84
2022-10-12T06:59:56.279Z,83.9
2022-10-12T07:01:00.093Z,83.9
2022-10-12T07:02:03.204Z,83.9
2022-10-12T07:03:06.670Z,83.9
2022-10-12T07:04:09.754Z,83.9
2022-10-12T07:05:12.821Z,83.9
2022-10-12T07:06:15.614Z,83.8
2022-10-12T07:07:19.229Z,83.8
2022-10-12T07:08:22.757Z,83.8
2022-10-12T07:09:26.817Z,83.7
2022-10-12T07:10:30.036Z,83.7
2022-10-12T07:11:32.838Z,83.7
2022-10-12T07:12:36.909Z,83.6
2022-10-12T07:13:41.716Z,83.5
2022-10-12T07:14:44.504Z,83.5
2022-10-12T07:15:47.486Z,83.6
2022-10-12T07:16:56.688Z,83.6
2022-10-12T07:18:00.124Z,83.7
2022-10-12T07:19:03.216Z,83.7
2022-10-12T07:20:06.961Z,83.6
2022-10-12T07:21:10.106Z,83.7
2022-10-12T07:22:12.901Z,83.7
2022-10-12T07:23:16.041Z,83.8
2022-10-12T07:24:18.839Z,83.7
2022-10-12T07:25:21.761Z,83.8
2022-10-12T07:26:24.901Z,84
2022-10-12T07:27:27.607Z,84
2022-10-12T07:28:31.757Z,84
2022-10-12T07:29:35.983Z,83.9
2022-10-12T07:30:39.053Z,83.9
2022-10-12T07:31:42.424Z,83.8
2022-10-12T07:32:44.413Z,83.9
2022-10-12T07:33:47.484Z,83.9
2022-10-12T07:34:50.305Z,84
2022-10-12T07:36:22.260Z,83.9
2022-10-12T07:38:02.062Z,83.9
2022-10-12T07:39:05.229Z,84.1
2022-10-12T07:40:08.600Z,84.1
2022-10-12T07:41:12.020Z,84.2
2022-10-12T07:42:20.745Z,84.2
2022-10-12T07:43:23.542Z,84.2
2022-10-12T07:44:27.235Z,84.1
2022-10-12T07:45:31.429Z,84
2022-10-12T07:46:34.354Z,84
2022-10-12T07:47:39.148Z,84.1
2022-10-12T07:48:50.905Z,84.1
2022-10-12T07:49:53.904Z,84.1
2022-10-12T07:50:57.327Z,84.3
2022-10-12T07:52:00.053Z,84.2
2022-10-12T07:53:02.568Z,84.1
2022-10-12T07:54:05.740Z,83.9
2022-10-12T07:55:09.094Z,83.8
2022-10-12T07:56:11.881Z,83.8
2022-10-12T07:57:15.952Z,83.7
2022-10-12T07:58:19.742Z,83.6
2022-10-12T07:59:22.562Z,83.5
2022-10-12T08:00:25.325Z,83.4
2022-10-12T08:01:29.254Z,83.5
2022-10-12T08:02:32.619Z,86.9
2022-10-12T08:03:36.065Z,87.3
2022-10-12T08:04:39.233Z,88
2022-10-12T08:05:42.028Z,86.7
2022-10-12T08:06:45.112Z,83.6
2022-10-12T08:07:47.827Z,80.6
2022-10-12T08:08:50.503Z,79.6
2022-10-12T08:09:54.208Z,79.5
2022-10-12T08:10:57.352Z,79.7
2022-10-12T08:12:00.213Z,79.9
2022-10-12T08:13:02.807Z,80.8
2022-10-12T08:14:06.517Z,81.6
2022-10-12T08:15:09.903Z,81.2
2022-10-12T08:16:12.798Z,81.7
2022-10-12T08:17:17.038Z,82.6
2022-10-12T08:18:20.812Z,80.6
2022-10-12T08:19:23.687Z,82.2
2022-10-12T08:20:27.224Z,81.2
2022-10-12T08:21:30.600Z,79.7
2022-10-12T08:22:33.415Z,79.4
2022-10-12T08:23:36.417Z,79.3
2022-10-12T08:24:39.410Z,79.4
2022-10-12T08:25:43.017Z,79.6
2022-10-12T08:26:46.004Z,79.7
2022-10-12T08:27:49.228Z,79.9
2022-10-12T08:28:52.964Z,79.8
2022-10-12T08:29:56.958Z,79.9
2022-10-12T08:30:59.565Z,80.4
2022-10-12T08:32:02.628Z,80.6
2022-10-12T08:33:11.694Z,80.6
2022-10-12T08:34:15.041Z,80.6
2022-10-12T08:35:17.198Z,80.6
2022-10-12T08:36:20.689Z,80.7
2022-10-12T08:37:24.133Z,80.9
2022-10-12T08:38:27.840Z,81
2022-10-12T08:39:30.566Z,80.9
2022-10-12T08:40:32.818Z,81
2022-10-12T08:41:36.195Z,80.9
2022-10-12T08:42:39.348Z,80.8
2022-10-12T08:43:42.911Z,80.8
2022-10-12T08:44:46.736Z,80.9
2022-10-12T08:45:49.604Z,80.5
2022-10-12T08:46:52.146Z,80.5
2022-10-12T08:47:55.598Z,80.3
2022-10-12T08:48:59.408Z,80.5
2022-10-12T08:50:02.827Z,80.5
2022-10-12T08:51:06.190Z,80.8
2022-10-12T08:52:13.411Z,80.6
2022-10-12T08:53:16.752Z,80.8
2022-10-12T08:54:19.277Z,80.7
2022-10-12T08:55:22.622Z,80.7
2022-10-12T08:56:26.137Z,80.7
2022-10-12T08:57:29.492Z,80.8
2022-10-12T08:58:33.590Z,80.6
2022-10-12T08:59:37.348Z,80.5
2022-10-12T09:00:40.914Z,80.3
2022-10-12T09:01:44.569Z,80.5
2022-10-12T09:02:48.149Z,80.5
2022-10-12T09:03:50.931Z,80.4
2022-10-12T09:04:54.770Z,80.7
2022-10-12T09:05:57.565Z,80.7
2022-10-12T09:07:00.484Z,80.6
2022-10-12T09:08:03.082Z,80.4
2022-10-12T09:09:06.162Z,80.3
2022-10-12T09:10:09.341Z,80.2
2022-10-12T09:11:12.162Z,80
2022-10-12T09:12:15.792Z,80.1
2022-10-12T09:13:18.563Z,80.1
2022-10-12T09:14:21.744Z,79.9
2022-10-12T09:15:25.391Z,79.8
2022-10-12T09:16:29.210Z,79.9
2022-10-12T09:17:32.677Z,79.8
2022-10-12T09:18:42.145Z,79.6
2022-10-12T09:19:45.862Z,79.6
2022-10-12T09:20:49.825Z,79.6
2022-10-12T09:21:52.811Z,79.4
2022-10-12T09:22:55.988Z,79.5
2022-10-12T09:23:59.077Z,79.7
2022-10-12T09:25:01.883Z,79.6
2022-10-12T09:26:05.111Z,79.6
2022-10-12T09:27:08.263Z,81.4
2022-10-12T09:28:11.904Z,81.5
2022-10-12T09:29:15.226Z,82.7
2022-10-12T09:30:18.017Z,82.3
2022-10-12T09:31:20.652Z,78.8
2022-10-12T09:32:24.374Z,78.5
2022-10-12T09:33:28.091Z,79.2
2022-10-12T09:34:31.298Z,78.9
2022-10-12T09:35:34.447Z,77.7
2022-10-12T09:36:38.283Z,77.8
2022-10-12T09:37:42.021Z,77.3
2022-10-12T09:38:45.455Z,77.8
2022-10-12T09:39:49.150Z,77.9
2022-10-12T09:40:52.255Z,77.7
2022-10-12T09:41:55.316Z,76.3
2022-10-12T09:42:59.066Z,76.2
2022-10-12T09:44:02.322Z,75.9
2022-10-12T09:45:04.754Z,76.7
2022-10-12T09:46:08.403Z,77.7
2022-10-12T09:47:10.911Z,76.2
2022-10-12T09:48:14.539Z,74.8
2022-10-12T09:49:18.022Z,74.6
2022-10-12T09:50:20.603Z,75.4
2022-10-12T09:51:23.677Z,74.4
2022-10-12T09:52:27.412Z,74.3
2022-10-12T09:53:30.499Z,74.8
2022-10-12T09:54:33.815Z,74.6
2022-10-12T09:55:36.747Z,75.1
2022-10-12T09:56:40.125Z,76.2
2022-10-12T09:57:43.849Z,75.9
2022-10-12T09:58:47.040Z,74.3
2022-10-12T09:59:50.472Z,74
2022-10-12T10:00:53.666Z,74.9
2022-10-12T10:01:57.009Z,74.6
2022-10-12T10:02:59.561Z,74.4
2022-10-12T10:04:02.791Z,72.6
2022-10-12T10:05:06.527Z,70.4
2022-10-12T10:06:10.060Z,69.3
2022-10-12T10:07:13.242Z,69.1
2022-10-12T10:08:17.381Z,68.6
2022-10-12T10:09:19.981Z,69.6
2022-10-12T10:10:32.399Z,68.3
2022-10-12T10:11:35.305Z,66.5
2022-10-12T10:12:38.925Z,65.8
2022-10-12T10:13:42.393Z,66.1
2022-10-12T10:14:45.573Z,65.6
2022-10-12T10:15:48.694Z,63.6
2022-10-12T10:16:51.648Z,60.9
2022-10-12T10:17:54.390Z,59.9
2022-10-12T10:18:57.301Z,59.5
2022-10-12T10:20:00.495Z,60.6
2022-10-12T10:21:03.944Z,60.5
2022-10-12T10:22:06.223Z,59.5
2022-10-12T10:23:09.619Z,59.7
2022-10-12T10:24:13.559Z,58
2022-10-12T10:25:16.786Z,57.5
2022-10-12T10:26:19.726Z,58
2022-10-12T10:27:22.553Z,57.2
2022-10-12T10:28:25.555Z,56.1
2022-10-12T10:29:28.913Z,55.3
2022-10-12T10:30:42.894Z,57.6
2022-10-12T10:31:47.801Z,57
2022-10-12T10:32:50.730Z,58.3
2022-10-12T10:33:54.771Z,56.1
2022-10-12T10:34:58.350Z,57.5
2022-10-12T10:36:01.964Z,56.8
2022-10-12T10:37:05.216Z,56.2
2022-10-12T10:38:08.698Z,55.9
2022-10-12T10:39:11.811Z,51.7
2022-10-12T10:40:17.226Z,51.4
2022-10-12T10:41:21.626Z,50.4
2022-10-12T10:42:25.297Z,50.4
2022-10-12T10:43:28.515Z,53.3
2022-10-12T10:44:32.144Z,50
2022-10-12T10:45:35.894Z,50.6
2022-10-12T10:46:39.493Z,49.7
2022-10-12T10:47:42.665Z,51.2
2022-10-12T10:48:46.256Z,51
2022-10-12T10:49:51.197Z,51.7
2022-10-12T10:50:53.552Z,53.7
2022-10-12T10:51:56.779Z,54.2
2022-10-12T10:53:00.248Z,52
2022-10-12T10:54:03.058Z,51.2
2022-10-12T10:55:06.507Z,51
2022-10-12T10:56:09.820Z,50.3
2022-10-12T10:57:13.013Z,50.4
2022-10-12T10:58:16.442Z,49.5
2022-10-12T10:59:19.147Z,50.7
2022-10-12T11:00:52.208Z,50.7
2022-10-12T11:01:56.000Z,53
2022-10-12T11:02:59.595Z,51.9
2022-10-12T11:04:02.134Z,50.2
2022-10-12T11:05:05.867Z,51.1
2022-10-12T11:06:09.042Z,51.2
2022-10-12T11:07:12.189Z,51.5
2022-10-12T11:08:15.265Z,49.2
2022-10-12T11:09:18.183Z,46.5
2022-10-12T11:10:21.549Z,45.5
2022-10-12T11:11:25.170Z,45.7
2022-10-12T11:12:32.625Z,45.2
2022-10-12T11:13:35.812Z,44.9
2022-10-12T11:14:38.282Z,44.4
2022-10-12T11:15:41.067Z,44.6
2022-10-12T11:16:43.879Z,45.6
2022-10-12T11:17:46.679Z,45.6
2022-10-12T11:18:50.137Z,44.2
2022-10-12T11:19:52.890Z,44.8
2022-10-12T11:20:56.114Z,44.6
2022-10-12T11:21:59.342Z,44.1
2022-10-12T11:23:02.947Z,43.9
2022-10-12T11:24:06.732Z,43.4
2022-10-12T11:25:10.487Z,43.3
2022-10-12T11:26:13.036Z,43.7
2022-10-12T11:27:17.003Z,44.5
2022-10-12T11:28:21.102Z,45.1
2022-10-12T11:29:23.514Z,43.8
2022-10-12T11:30:27.218Z,45.2
2022-10-12T11:31:30.984Z,45.6
2022-10-12T11:32:34.819Z,46.5
2022-10-12T11:33:37.602Z,46
2022-10-12T11:34:41.502Z,46.4
2022-10-12T11:35:45.322Z,46.6
2022-10-12T11:37:21.455Z,47.3
2022-10-12T11:38:25.462Z,47.3
2022-10-12T11:39:28.877Z,46.9
2022-10-12T11:41:36.426Z,45.7
2022-10-12T11:42:44.656Z,45.8
2022-10-12T11:43:47.586Z,45.7
2022-10-12T11:44:51.025Z,45.7
2022-10-12T11:45:55.103Z,46
2022-10-12T11:46:58.412Z,45.4
2022-10-12T11:48:02.133Z,46.9
2022-10-12T11:49:04.849Z,46.6
2022-10-12T11:50:07.761Z,47.1
2022-10-12T11:51:11.284Z,46.6
2022-10-12T11:52:14.644Z,46.9
2022-10-12T11:53:17.428Z,46.9
2022-10-12T11:54:21.050Z,46.4
2022-10-12T11:55:24.702Z,46.8
2022-10-12T11:56:29.064Z,46.9
2022-10-12T11:57:32.555Z,48.9
2022-10-12T11:59:02.713Z,47
2022-10-12T12:00:06.299Z,44.8
2022-10-12T12:01:10.103Z,44.9
2022-10-12T12:02:12.543Z,44.6
2022-10-12T12:03:15.992Z,43.4
2022-10-12T12:04:48.785Z,44.5
2022-10-12T12:05:54.283Z,43.9
2022-10-12T12:06:57.438Z,43.9
2022-10-12T12:08:00.625Z,43.4
2022-10-12T12:09:03.879Z,44.5
2022-10-12T12:10:07.229Z,43.1
2022-10-12T12:11:10.576Z,42.6
2022-10-12T12:12:14.058Z,42.8
2022-10-12T12:13:17.417Z,43.7
2022-10-12T12:14:21.355Z,43.2
2022-10-12T12:15:24.149Z,43.6
2022-10-12T12:16:27.108Z,43.6
2022-10-12T12:17:33.473Z,43.4
2022-10-12T12:18:36.934Z,43.2
2022-10-12T12:19:39.994Z,43.4
2022-10-12T12:20:44.342Z,40.9
2022-10-12T12:21:47.527Z,40.6
2022-10-12T12:22:50.397Z,41.9
2022-10-12T12:23:53.932Z,42.3
2022-10-12T12:24:57.026Z,42.7
2022-10-12T12:26:00.569Z,42.9
2022-10-12T12:27:04.111Z,43.5
2022-10-12T12:28:06.653Z,43.1
2022-10-12T12:29:09.545Z,43.3
2022-10-12T12:30:13.195Z,43.1
2022-10-12T12:31:16.091Z,43
2022-10-12T12:32:19.321Z,43.2
2022-10-12T12:33:21.854Z,45.1
2022-10-12T12:34:25.041Z,43.5
2022-10-12T12:35:28.115Z,43
2022-10-12T12:36:31.734Z,42.3
2022-10-12T12:37:34.814Z,42.2
2022-10-12T12:38:38.255Z,41.7
2022-10-12T12:39:43.205Z,42.4
2022-10-12T12:40:47.219Z,43.1
2022-10-12T12:42:03.307Z,43.5
2022-10-12T12:43:06.373Z,43.3
2022-10-12T12:44:09.406Z,43.8
2022-10-12T12:45:12.219Z,44.1
2022-10-12T12:46:15.462Z,44.2
2022-10-12T12:47:47.525Z,44.6
2022-10-12T12:48:50.872Z,43.8
2022-10-12T12:49:53.429Z,44.2
2022-10-12T12:50:56.465Z,44.7
2022-10-12T12:52:00.216Z,44.3
2022-10-12T12:53:03.318Z,43.6
2022-10-12T12:54:05.927Z,44.3
2022-10-12T12:55:09.018Z,44.8
2022-10-12T12:56:12.177Z,44.7
2022-10-12T12:57:15.531Z,43
2022-10-12T12:58:19.171Z,43.7
2022-10-12T12:59:22.057Z,42.4
2022-10-12T13:00:25.826Z,42.5
2022-10-12T13:01:30.793Z,42.5
2022-10-12T13:02:35.425Z,42.5
2022-10-12T13:03:38.659Z,42.4
2022-10-12T13:04:41.758Z,42.1
2022-10-12T13:05:45.193Z,42.7
2022-10-12T13:06:48.191Z,43.2
2022-10-12T13:07:51.671Z,43.4
2022-10-12T13:08:54.472Z,43.9
2022-10-12T13:09:57.634Z,44.6
2022-10-12T13:11:00.625Z,44.6
2022-10-12T13:12:03.434Z,44.9
2022-10-12T13:13:06.692Z,45.2
2022-10-12T13:14:09.827Z,45.9
2022-10-12T13:15:13.493Z,46
2022-10-12T13:17:34.011Z,46.3
2022-10-12T13:18:50.224Z,46.6
2022-10-12T13:19:53.597Z,46.3
2022-10-12T13:20:56.849Z,46.7
2022-10-12T13:22:00.280Z,46.7
2022-10-12T13:23:03.728Z,46.7
2022-10-12T13:24:06.165Z,46.7
2022-10-12T13:25:08.703Z,46.8
2022-10-12T13:26:11.850Z,46.9
2022-10-12T13:27:15.611Z,47.4
2022-10-12T13:28:18.801Z,46.8
2022-10-12T13:29:22.196Z,47.1
2022-10-12T13:30:25.927Z,47.3
2022-10-12T13:31:29.305Z,47.1
2022-10-12T13:32:33.483Z,46.7
2022-10-12T13:33:37.316Z,46
2022-10-12T13:34:40.774Z,46.3
2022-10-12T13:35:44.354Z,45.5
2022-10-12T13:36:47.636Z,45.1
2022-10-12T13:37:51.822Z,45.3
2022-10-12T13:38:54.986Z,45.9
2022-10-12T13:39:58.300Z,46.1
2022-10-12T13:41:00.901Z,46.7
2022-10-12T13:42:04.623Z,46.7
2022-10-12T13:43:07.879Z,46.8
2022-10-12T13:44:11.552Z,46.8
2022-10-12T13:45:14.463Z,47.3
2022-10-12T13:46:17.533Z,47.3
2022-10-12T13:47:20.369Z,47
2022-10-12T13:49:00.903Z,46.9
2022-10-12T13:50:04.016Z,46.6
2022-10-12T13:51:07.279Z,46.9
2022-10-12T13:52:10.779Z,46.8
2022-10-12T13:53:14.885Z,47.2
2022-10-12T13:54:18.293Z,46.5
2022-10-12T13:55:21.728Z,46.9
2022-10-12T13:56:24.266Z,47.3
2022-10-12T13:57:27.521Z,46.1
2022-10-12T13:58:30.382Z,46
2022-10-12T13:59:34.252Z,45.3
2022-10-12T14:00:37.377Z,46.9
2022-10-12T14:01:40.688Z,48.7
2022-10-12T14:02:43.404Z,46.3
2022-10-12T14:03:46.120Z,45.9
2022-10-12T14:04:49.139Z,45.5
2022-10-12T14:06:04.830Z,45.1
2022-10-12T14:07:07.659Z,45.2
2022-10-12T14:08:10.827Z,46.7
2022-10-12T14:09:14.935Z,45
2022-10-12T14:10:18.019Z,44.5
2022-10-12T14:11:20.519Z,44.7
2022-10-12T14:12:26.749Z,45
2022-10-12T14:13:30.129Z,45.3
2022-10-12T14:14:33.674Z,47.4